Bert Mooney Airport Butte US
ICAO: KBTM
IATA: BTM
Category: Medium
Scheduled Services: Yes

Elevation: 5550 ft
TransAlt. 18000 ft.

Airport Communications:
ASOS:135.175
SALT LAKE CITY CNTR:132.4
GREAT FALLS RDO:122.2
CTAF/UNICOM:123

KBTM Zoom In..

Runways:

(A) RW 12 length 5100 ft width 75 ft
---- / hdg 113

(B) RW 15 length 9001 ft width 150 ft
ILS 110.90 / hdg 151

(C) RW 30 length 5100 ft width 75 ft
---- / hdg 293

(D) RW 33 length 9001 ft width 150 ft
---- / hdg 331

Location; KBTM
Day. 22 / Time. 03.53 Zulu
* Altimeter: 30.03
* Temperature: -17° c. -1.4°f.
* Wind from: 240° Speed 04 kn.
Dewpoint: -19° c.
Visibility: 10 Statute Miles.
Clouds: Clear (automated report).

KBTM 220353Z AUTO 24004KT 10SM CLR M17/M19 A3003 RMK AO2 SLP284 T11721194


Wind From 240°
Speed 04 kn.

jpsM music video
CHECK IT OUT

jpsM - It Moves..

 
jpsmedia.com for Web Design  worldairports.se 2018   terms of use